sensor_id;sensor_type;location;lat;lon;timestamp;temperature;humidity
47616;DHT22;69146;52.266;7.000;2023-05-20T00:01:46;13.20;96.40
47616;DHT22;69146;52.266;7.000;2023-05-20T00:04:30;13.20;96.50
47616;DHT22;69146;52.266;7.000;2023-05-20T00:07:16;13.20;96.50
47616;DHT22;69146;52.266;7.000;2023-05-20T00:10:00;13.20;96.60
47616;DHT22;69146;52.266;7.000;2023-05-20T00:12:45;13.30;96.70
47616;DHT22;69146;52.266;7.000;2023-05-20T00:15:29;13.20;96.80
47616;DHT22;69146;52.266;7.000;2023-05-20T00:18:14;13.20;97.00
47616;DHT22;69146;52.266;7.000;2023-05-20T00:20:58;13.10;97.10
47616;DHT22;69146;52.266;7.000;2023-05-20T00:23:44;13.10;97.30
47616;DHT22;69146;52.266;7.000;2023-05-20T00:26:29;13.20;97.40
47616;DHT22;69146;52.266;7.000;2023-05-20T00:29:13;13.10;97.40
47616;DHT22;69146;52.266;7.000;2023-05-20T00:31:58;13.10;97.60
47616;DHT22;69146;52.266;7.000;2023-05-20T00:34:42;13.20;97.70
47616;DHT22;69146;52.266;7.000;2023-05-20T00:37:27;13.10;97.80
47616;DHT22;69146;52.266;7.000;2023-05-20T00:40:13;13.10;97.90
47616;DHT22;69146;52.266;7.000;2023-05-20T00:42:58;13.20;98.00
47616;DHT22;69146;52.266;7.000;2023-05-20T00:45:42;13.20;98.00
47616;DHT22;69146;52.266;7.000;2023-05-20T00:48:27;13.10;98.10
47616;DHT22;69146;52.266;7.000;2023-05-20T00:51:13;13.20;98.20
47616;DHT22;69146;52.266;7.000;2023-05-20T00:53:57;13.20;98.30
47616;DHT22;69146;52.266;7.000;2023-05-20T00:56:43;13.10;98.50
47616;DHT22;69146;52.266;7.000;2023-05-20T00:59:28;13.10;98.40
47616;DHT22;69146;52.266;7.000;2023-05-20T01:02:12;13.10;98.50
47616;DHT22;69146;52.266;7.000;2023-05-20T01:04:57;13.10;98.50
47616;DHT22;69146;52.266;7.000;2023-05-20T01:07:42;13.10;98.60
47616;DHT22;69146;52.266;7.000;2023-05-20T01:10:27;13.10;98.70
47616;DHT22;69146;52.266;7.000;2023-05-20T01:13:15;13.10;98.70
47616;DHT22;69146;52.266;7.000;2023-05-20T01:16:00;13.10;98.80
47616;DHT22;69146;52.266;7.000;2023-05-20T01:18:46;13.10;99.00
47616;DHT22;69146;52.266;7.000;2023-05-20T01:21:31;13.10;98.90
47616;DHT22;69146;52.266;7.000;2023-05-20T01:24:18;13.00;99.20
47616;DHT22;69146;52.266;7.000;2023-05-20T01:27:03;13.10;99.10
47616;DHT22;69146;52.266;7.000;2023-05-20T01:29:49;13.10;99.20
47616;DHT22;69146;52.266;7.000;2023-05-20T01:32:35;13.10;99.10
47616;DHT22;69146;52.266;7.000;2023-05-20T01:35:21;13.00;99.20
47616;DHT22;69146;52.266;7.000;2023-05-20T01:38:06;13.00;99.20
47616;DHT22;69146;52.266;7.000;2023-05-20T01:40:53;12.90;99.40
47616;DHT22;69146;52.266;7.000;2023-05-20T01:43:38;12.80;99.50
47616;DHT22;69146;52.266;7.000;2023-05-20T01:46:22;12.70;99.70
47616;DHT22;69146;52.266;7.000;2023-05-20T01:49:07;12.60;99.90
47616;DHT22;69146;52.266;7.000;2023-05-20T01:51:51;12.50;99.90
47616;DHT22;69146;52.266;7.000;2023-05-20T01:54:35;12.40;99.90
47616;DHT22;69146;52.266;7.000;2023-05-20T01:57:21;12.40;99.90
47616;DHT22;69146;52.266;7.000;2023-05-20T02:00:07;12.30;99.90
47616;DHT22;69146;52.266;7.000;2023-05-20T02:02:52;12.30;99.90
47616;DHT22;69146;52.266;7.000;2023-05-20T02:05:37;12.30;99.90
47616;DHT22;69146;52.266;7.000;2023-05-20T02:08:21;12.20;99.90
47616;DHT22;69146;52.266;7.000;2023-05-20T02:11:05;12.20;99.90
47616;DHT22;69146;52.266;7.000;2023-05-20T02:13:51;12.10;99.90
47616;DHT22;69146;52.266;7.000;2023-05-20T02:16:36;12.00;99.90
47616;DHT22;69146;52.266;7.000;2023-05-20T02:19:20;12.00;99.90
47616;DHT22;69146;52.266;7.000;2023-05-20T02:22:06;11.90;99.90
47616;DHT22;69146;52.266;7.000;2023-05-20T02:24:50;11.90;99.90
47616;DHT22;69146;52.266;7.000;2023-05-20T02:27:35;11.90;99.90
47616;DHT22;69146;52.266;7.000;2023-05-20T02:30:21;11.90;99.90
47616;DHT22;69146;52.266;7.000;2023-05-20T02:33:05;11.90;99.90
47616;DHT22;69146;52.266;7.000;2023-05-20T02:35:51;11.80;99.90
47616;DHT22;69146;52.266;7.000;2023-05-20T02:38:35;11.80;99.90
47616;DHT22;69146;52.266;7.000;2023-05-20T02:41:19;11.70;99.90
47616;DHT22;69146;52.266;7.000;2023-05-20T02:44:04;11.70;99.90
47616;DHT22;69146;52.266;7.000;2023-05-20T02:46:50;11.70;99.90
47616;DHT22;69146;52.266;7.000;2023-05-20T02:49:35;11.60;99.90
47616;DHT22;69146;52.266;7.000;2023-05-20T02:52:20;11.60;99.90
47616;DHT22;69146;52.266;7.000;2023-05-20T02:55:05;11.50;99.90
47616;DHT22;69146;52.266;7.000;2023-05-20T02:57:50;11.50;99.90
47616;DHT22;69146;52.266;7.000;2023-05-20T03:00:35;11.50;99.90
47616;DHT22;69146;52.266;7.000;2023-05-20T03:03:25;11.40;99.90
47616;DHT22;69146;52.266;7.000;2023-05-20T03:06:10;11.30;99.90
47616;DHT22;69146;52.266;7.000;2023-05-20T03:08:54;11.30;99.90
47616;DHT22;69146;52.266;7.000;2023-05-20T03:11:39;11.30;99.90
47616;DHT22;69146;52.266;7.000;2023-05-20T03:14:23;11.30;99.90
47616;DHT22;69146;52.266;7.000;2023-05-20T03:17:07;11.30;99.90
47616;DHT22;69146;52.266;7.000;2023-05-20T03:19:53;11.30;99.90
47616;DHT22;69146;52.266;7.000;2023-05-20T03:22:38;11.20;99.90
47616;DHT22;69146;52.266;7.000;2023-05-20T03:25:22;11.20;99.90
47616;DHT22;69146;52.266;7.000;2023-05-20T03:28:07;11.20;99.90
47616;DHT22;69146;52.266;7.000;2023-05-20T03:30:52;11.20;99.90
47616;DHT22;69146;52.266;7.000;2023-05-20T03:33:36;11.20;99.90
47616;DHT22;69146;52.266;7.000;2023-05-20T03:36:22;11.10;99.90
47616;DHT22;69146;52.266;7.000;2023-05-20T03:39:06;11.10;99.90
47616;DHT22;69146;52.266;7.000;2023-05-20T03:41:51;11.10;99.90
47616;DHT22;69146;52.266;7.000;2023-05-20T03:44:35;11.10;99.90
47616;DHT22;69146;52.266;7.000;2023-05-20T03:47:19;11.00;99.90
47616;DHT22;69146;52.266;7.000;2023-05-20T03:50:04;11.10;99.90
47616;DHT22;69146;52.266;7.000;2023-05-20T03:52:50;11.00;99.90
47616;DHT22;69146;52.266;7.000;2023-05-20T03:55:35;11.00;99.90
47616;DHT22;69146;52.266;7.000;2023-05-20T03:58:19;11.00;99.90
47616;DHT22;69146;52.266;7.000;2023-05-20T04:01:04;10.90;99.90
47616;DHT22;69146;52.266;7.000;2023-05-20T04:03:48;10.90;99.90
47616;DHT22;69146;52.266;7.000;2023-05-20T04:06:32;10.90;99.90
47616;DHT22;69146;52.266;7.000;2023-05-20T04:09:18;10.90;99.90
47616;DHT22;69146;52.266;7.000;2023-05-20T04:12:03;11.00;99.90
47616;DHT22;69146;52.266;7.000;2023-05-20T04:14:48;11.00;99.90
47616;DHT22;69146;52.266;7.000;2023-05-20T04:17:33;10.90;99.90
47616;DHT22;69146;52.266;7.000;2023-05-20T04:20:17;10.90;99.90
47616;DHT22;69146;52.266;7.000;2023-05-20T04:23:02;10.90;99.90
47616;DHT22;69146;52.266;7.000;2023-05-20T04:25:48;11.00;99.90
47616;DHT22;69146;52.266;7.000;2023-05-20T04:28:33;11.10;99.90
47616;DHT22;69146;52.266;7.000;2023-05-20T04:31:17;11.10;99.90
47616;DHT22;69146;52.266;7.000;2023-05-20T04:34:04;11.00;99.90
47616;DHT22;69146;52.266;7.000;2023-05-20T04:36:48;11.10;99.90
47616;DHT22;69146;52.266;7.000;2023-05-20T04:39:32;11.10;99.90
47616;DHT22;69146;52.266;7.000;2023-05-20T04:42:18;11.20;99.90
47616;DHT22;69146;52.266;7.000;2023-05-20T04:45:05;11.20;99.90
47616;DHT22;69146;52.266;7.000;2023-05-20T04:47:51;11.10;99.90
47616;DHT22;69146;52.266;7.000;2023-05-20T04:50:36;11.20;99.90
47616;DHT22;69146;52.266;7.000;2023-05-20T04:53:21;11.30;99.90
47616;DHT22;69146;52.266;7.000;2023-05-20T04:56:06;11.30;99.90
47616;DHT22;69146;52.266;7.000;2023-05-20T04:58:52;11.30;99.90
47616;DHT22;69146;52.266;7.000;2023-05-20T05:01:37;11.40;99.90
47616;DHT22;69146;52.266;7.000;2023-05-20T05:04:21;11.40;99.90
47616;DHT22;69146;52.266;7.000;2023-05-20T05:07:06;11.40;99.90
47616;DHT22;69146;52.266;7.000;2023-05-20T05:09:50;11.50;99.90
47616;DHT22;69146;52.266;7.000;2023-05-20T05:12:34;11.60;99.90
47616;DHT22;69146;52.266;7.000;2023-05-20T05:15:20;11.60;99.90
47616;DHT22;69146;52.266;7.000;2023-05-20T05:18:04;11.60;99.90
47616;DHT22;69146;52.266;7.000;2023-05-20T05:20:49;11.70;99.90
47616;DHT22;69146;52.266;7.000;2023-05-20T05:23:33;11.80;99.90
47616;DHT22;69146;52.266;7.000;2023-05-20T05:26:18;11.80;99.90
47616;DHT22;69146;52.266;7.000;2023-05-20T05:29:02;11.90;99.90
47616;DHT22;69146;52.266;7.000;2023-05-20T05:31:48;12.00;99.90
47616;DHT22;69146;52.266;7.000;2023-05-20T05:34:33;12.00;99.90
47616;DHT22;69146;52.266;7.000;2023-05-20T05:37:17;12.10;99.90
47616;DHT22;69146;52.266;7.000;2023-05-20T05:40:02;12.20;99.90
47616;DHT22;69146;52.266;7.000;2023-05-20T05:42:46;12.30;99.90
47616;DHT22;69146;52.266;7.000;2023-05-20T05:45:31;12.40;99.90
47616;DHT22;69146;52.266;7.000;2023-05-20T05:48:17;12.40;99.90
47616;DHT22;69146;52.266;7.000;2023-05-20T05:51:01;12.50;99.90
47616;DHT22;69146;52.266;7.000;2023-05-20T05:53:46;12.60;99.90
47616;DHT22;69146;52.266;7.000;2023-05-20T05:56:30;12.70;99.90
47616;DHT22;69146;52.266;7.000;2023-05-20T05:59:15;12.80;99.90
47616;DHT22;69146;52.266;7.000;2023-05-20T06:01:59;12.90;99.90
47616;DHT22;69146;52.266;7.000;2023-05-20T06:04:45;13.00;99.90
47616;DHT22;69146;52.266;7.000;2023-05-20T06:07:29;13.10;99.40
47616;DHT22;69146;52.266;7.000;2023-05-20T06:10:13;13.10;99.30
47616;DHT22;69146;52.266;7.000;2023-05-20T06:12:58;13.10;99.10
47616;DHT22;69146;52.266;7.000;2023-05-20T06:15:42;13.20;99.10
47616;DHT22;69146;52.266;7.000;2023-05-20T06:18:29;13.30;99.10
47616;DHT22;69146;52.266;7.000;2023-05-20T06:21:15;13.50;99.10
47616;DHT22;69146;52.266;7.000;2023-05-20T06:23:59;13.50;98.40
47616;DHT22;69146;52.266;7.000;2023-05-20T06:26:44;13.60;98.30
47616;DHT22;69146;52.266;7.000;2023-05-20T06:29:29;13.70;98.50
47616;DHT22;69146;52.266;7.000;2023-05-20T06:32:13;13.80;98.30
47616;DHT22;69146;52.266;7.000;2023-05-20T06:34:58;13.90;98.50
47616;DHT22;69146;52.266;7.000;2023-05-20T06:37:43;14.00;98.20
47616;DHT22;69146;52.266;7.000;2023-05-20T06:40:28;14.10;97.60
47616;DHT22;69146;52.266;7.000;2023-05-20T06:43:13;14.20;97.40
47616;DHT22;69146;52.266;7.000;2023-05-20T06:45:57;14.20;97.30
47616;DHT22;69146;52.266;7.000;2023-05-20T06:48:42;14.30;97.30
47616;DHT22;69146;52.266;7.000;2023-05-20T06:51:26;14.40;97.10
47616;DHT22;69146;52.266;7.000;2023-05-20T06:54:12;14.50;96.90
47616;DHT22;69146;52.266;7.000;2023-05-20T06:56:57;14.60;96.70
47616;DHT22;69146;52.266;7.000;2023-05-20T06:59:41;14.70;96.40
47616;DHT22;69146;52.266;7.000;2023-05-20T07:02:26;14.70;96.70
47616;DHT22;69146;52.266;7.000;2023-05-20T07:05:10;14.90;96.30
47616;DHT22;69146;52.266;7.000;2023-05-20T07:07:55;15.10;96.30
47616;DHT22;69146;52.266;7.000;2023-05-20T07:10:41;15.30;95.80
47616;DHT22;69146;52.266;7.000;2023-05-20T07:13:26;15.40;95.10
47616;DHT22;69146;52.266;7.000;2023-05-20T07:16:10;15.40;94.90
47616;DHT22;69146;52.266;7.000;2023-05-20T07:18:55;15.50;95.60
47616;DHT22;69146;52.266;7.000;2023-05-20T07:21:39;15.60;94.70
47616;DHT22;69146;52.266;7.000;2023-05-20T07:24:24;15.70;95.20
47616;DHT22;69146;52.266;7.000;2023-05-20T07:27:09;15.90;94.50
47616;DHT22;69146;52.266;7.000;2023-05-20T07:29:54;16.20;94.30
47616;DHT22;69146;52.266;7.000;2023-05-20T07:32:38;16.20;94.10
47616;DHT22;69146;52.266;7.000;2023-05-20T07:35:23;16.30;93.80
47616;DHT22;69146;52.266;7.000;2023-05-20T07:38:07;16.40;93.00
47616;DHT22;69146;52.266;7.000;2023-05-20T07:40:51;16.50;92.90
47616;DHT22;69146;52.266;7.000;2023-05-20T07:43:37;16.60;92.90
47616;DHT22;69146;52.266;7.000;2023-05-20T07:46:22;16.70;92.80
47616;DHT22;69146;52.266;7.000;2023-05-20T07:49:06;16.70;92.60
47616;DHT22;69146;52.266;7.000;2023-05-20T07:51:51;16.70;92.70
47616;DHT22;69146;52.266;7.000;2023-05-20T07:54:35;16.80;92.80
47616;DHT22;69146;52.266;7.000;2023-05-20T07:57:19;17.10;92.10
47616;DHT22;69146;52.266;7.000;2023-05-20T08:00:06;17.30;91.90
47616;DHT22;69146;52.266;7.000;2023-05-20T08:02:52;17.30;91.30
47616;DHT22;69146;52.266;7.000;2023-05-20T08:05:36;17.30;91.20
47616;DHT22;69146;52.266;7.000;2023-05-20T08:08:21;17.20;91.40
47616;DHT22;69146;52.266;7.000;2023-05-20T08:11:06;17.20;91.40
47616;DHT22;69146;52.266;7.000;2023-05-20T08:13:50;17.30;91.40
47616;DHT22;69146;52.266;7.000;2023-05-20T08:16:36;17.40;91.20
47616;DHT22;69146;52.266;7.000;2023-05-20T08:19:21;17.40;90.90
47616;DHT22;69146;52.266;7.000;2023-05-20T08:22:05;17.40;90.70
47616;DHT22;69146;52.266;7.000;2023-05-20T08:24:51;17.60;90.50
47616;DHT22;69146;52.266;7.000;2023-05-20T08:27:35;17.90;90.20
47616;DHT22;69146;52.266;7.000;2023-05-20T08:30:20;18.10;90.10
47616;DHT22;69146;52.266;7.000;2023-05-20T08:33:06;18.30;89.30
47616;DHT22;69146;52.266;7.000;2023-05-20T08:35:50;18.30;89.70
47616;DHT22;69146;52.266;7.000;2023-05-20T08:38:35;18.40;86.70
47616;DHT22;69146;52.266;7.000;2023-05-20T08:41:19;18.30;86.00
47616;DHT22;69146;52.266;7.000;2023-05-20T08:44:05;18.20;86.60
47616;DHT22;69146;52.266;7.000;2023-05-20T08:46:51;18.10;86.90
47616;DHT22;69146;52.266;7.000;2023-05-20T08:49:37;18.10;85.40
47616;DHT22;69146;52.266;7.000;2023-05-20T08:52:21;18.10;85.90
47616;DHT22;69146;52.266;7.000;2023-05-20T08:55:06;18.30;86.10
47616;DHT22;69146;52.266;7.000;2023-05-20T08:57:52;18.40;86.10
47616;DHT22;69146;52.266;7.000;2023-05-20T09:00:38;18.30;84.50
47616;DHT22;69146;52.266;7.000;2023-05-20T09:03:22;18.60;84.60
47616;DHT22;69146;52.266;7.000;2023-05-20T09:06:14;18.50;84.30
47616;DHT22;69146;52.266;7.000;2023-05-20T09:08:59;18.40;83.50
47616;DHT22;69146;52.266;7.000;2023-05-20T09:11:43;18.40;84.00
47616;DHT22;69146;52.266;7.000;2023-05-20T09:14:27;18.50;84.50
47616;DHT22;69146;52.266;7.000;2023-05-20T09:17:12;18.40;83.00
47616;DHT22;69146;52.266;7.000;2023-05-20T09:19:57;18.20;84.50
47616;DHT22;69146;52.266;7.000;2023-05-20T09:22:43;18.20;84.80
47616;DHT22;69146;52.266;7.000;2023-05-20T09:25:27;18.20;84.40
47616;DHT22;69146;52.266;7.000;2023-05-20T09:28:12;18.10;84.10
47616;DHT22;69146;52.266;7.000;2023-05-20T09:30:57;18.10;84.60
47616;DHT22;69146;52.266;7.000;2023-05-20T09:33:42;18.00;84.80
47616;DHT22;69146;52.266;7.000;2023-05-20T09:36:27;17.80;84.60
47616;DHT22;69146;52.266;7.000;2023-05-20T09:39:13;17.90;86.00
47616;DHT22;69146;52.266;7.000;2023-05-20T09:42:00;18.10;84.60
47616;DHT22;69146;52.266;7.000;2023-05-20T09:44:46;18.50;83.80
47616;DHT22;69146;52.266;7.000;2023-05-20T09:47:31;18.70;82.50
47616;DHT22;69146;52.266;7.000;2023-05-20T09:50:16;18.70;82.50
47616;DHT22;69146;52.266;7.000;2023-05-20T09:53:01;19.10;82.30
47616;DHT22;69146;52.266;7.000;2023-05-20T09:55:47;19.20;81.30
47616;DHT22;69146;52.266;7.000;2023-05-20T09:58:31;19.20;81.20
47616;DHT22;69146;52.266;7.000;2023-05-20T10:01:16;19.30;81.30
47616;DHT22;69146;52.266;7.000;2023-05-20T10:04:01;19.40;81.40
47616;DHT22;69146;52.266;7.000;2023-05-20T10:06:58;19.40;81.70
47616;DHT22;69146;52.266;7.000;2023-05-20T10:09:49;19.70;81.50
47616;DHT22;69146;52.266;7.000;2023-05-20T10:12:41;20.00;80.60
47616;DHT22;69146;52.266;7.000;2023-05-20T10:15:42;20.10;80.60
47616;DHT22;69146;52.266;7.000;2023-05-20T10:18:30;19.90;80.30
47616;DHT22;69146;52.266;7.000;2023-05-20T10:21:20;20.00;80.40
47616;DHT22;69146;52.266;7.000;2023-05-20T10:24:07;20.20;81.50
47616;DHT22;69146;52.266;7.000;2023-05-20T10:26:54;20.40;80.10
47616;DHT22;69146;52.266;7.000;2023-05-20T10:29:44;20.20;79.20
47616;DHT22;69146;52.266;7.000;2023-05-20T10:32:29;19.90;79.80
47616;DHT22;69146;52.266;7.000;2023-05-20T10:35:20;19.60;81.20
47616;DHT22;69146;52.266;7.000;2023-05-20T10:38:08;19.80;80.80
47616;DHT22;69146;52.266;7.000;2023-05-20T10:40:53;20.30;80.20
47616;DHT22;69146;52.266;7.000;2023-05-20T10:43:38;20.60;80.20
47616;DHT22;69146;52.266;7.000;2023-05-20T10:46:23;21.00;79.10
47616;DHT22;69146;52.266;7.000;2023-05-20T10:49:16;21.20;78.40
47616;DHT22;69146;52.266;7.000;2023-05-20T10:52:00;21.50;78.00
47616;DHT22;69146;52.266;7.000;2023-05-20T10:54:46;21.70;77.60
47616;DHT22;69146;52.266;7.000;2023-05-20T10:57:31;21.80;76.70
47616;DHT22;69146;52.266;7.000;2023-05-20T11:00:17;21.60;76.90
47616;DHT22;69146;52.266;7.000;2023-05-20T11:03:03;21.40;77.80
47616;DHT22;69146;52.266;7.000;2023-05-20T11:05:48;21.50;78.10
47616;DHT22;69146;52.266;7.000;2023-05-20T11:08:33;21.50;77.50
47616;DHT22;69146;52.266;7.000;2023-05-20T11:11:17;21.60;77.20
47616;DHT22;69146;52.266;7.000;2023-05-20T11:14:02;21.60;76.40
47616;DHT22;69146;52.266;7.000;2023-05-20T11:16:49;21.50;76.90
47616;DHT22;69146;52.266;7.000;2023-05-20T11:19:37;21.70;76.60
47616;DHT22;69146;52.266;7.000;2023-05-20T11:22:21;21.70;75.70
47616;DHT22;69146;52.266;7.000;2023-05-20T11:25:05;21.80;76.50
47616;DHT22;69146;52.266;7.000;2023-05-20T11:27:51;22.00;74.50
47616;DHT22;69146;52.266;7.000;2023-05-20T11:30:35;21.60;75.50
47616;DHT22;69146;52.266;7.000;2023-05-20T11:33:20;21.50;77.50
47616;DHT22;69146;52.266;7.000;2023-05-20T11:36:06;21.60;76.60
47616;DHT22;69146;52.266;7.000;2023-05-20T11:38:52;21.50;75.90
47616;DHT22;69146;52.266;7.000;2023-05-20T11:41:36;21.50;76.30
47616;DHT22;69146;52.266;7.000;2023-05-20T11:44:23;21.50;75.30
47616;DHT22;69146;52.266;7.000;2023-05-20T11:47:07;21.50;75.80
47616;DHT22;69146;52.266;7.000;2023-05-20T11:49:52;21.50;75.00
47616;DHT22;69146;52.266;7.000;2023-05-20T11:52:38;21.40;75.10
47616;DHT22;69146;52.266;7.000;2023-05-20T11:55:22;21.30;76.40
47616;DHT22;69146;52.266;7.000;2023-05-20T11:58:07;21.40;74.30
47616;DHT22;69146;52.266;7.000;2023-05-20T12:00:54;21.40;75.40
47616;DHT22;69146;52.266;7.000;2023-05-20T12:03:38;21.90;74.80
47616;DHT22;69146;52.266;7.000;2023-05-20T12:06:22;22.20;74.20
47616;DHT22;69146;52.266;7.000;2023-05-20T12:09:09;22.40;72.90
47616;DHT22;69146;52.266;7.000;2023-05-20T12:11:54;22.10;72.60
47616;DHT22;69146;52.266;7.000;2023-05-20T12:14:40;22.00;73.40
47616;DHT22;69146;52.266;7.000;2023-05-20T12:17:24;22.00;72.80
47616;DHT22;69146;52.266;7.000;2023-05-20T12:20:08;21.80;73.30
47616;DHT22;69146;52.266;7.000;2023-05-20T12:22:53;22.00;73.40
47616;DHT22;69146;52.266;7.000;2023-05-20T12:25:39;22.20;73.20
47616;DHT22;69146;52.266;7.000;2023-05-20T12:28:24;22.50;73.20
47616;DHT22;69146;52.266;7.000;2023-05-20T12:31:08;22.20;71.60
47616;DHT22;69146;52.266;7.000;2023-05-20T12:33:53;22.10;72.10
47616;DHT22;69146;52.266;7.000;2023-05-20T12:36:37;22.10;72.20
47616;DHT22;69146;52.266;7.000;2023-05-20T12:39:22;22.40;72.90
47616;DHT22;69146;52.266;7.000;2023-05-20T12:42:08;22.70;72.10
47616;DHT22;69146;52.266;7.000;2023-05-20T12:44:52;22.80;71.50
47616;DHT22;69146;52.266;7.000;2023-05-20T12:47:36;22.80;71.10
47616;DHT22;69146;52.266;7.000;2023-05-20T12:50:21;22.80;71.30
47616;DHT22;69146;52.266;7.000;2023-05-20T12:53:05;22.60;71.90
47616;DHT22;69146;52.266;7.000;2023-05-20T12:55:50;22.70;72.30
47616;DHT22;69146;52.266;7.000;2023-05-20T12:58:35;22.40;71.20
47616;DHT22;69146;52.266;7.000;2023-05-20T13:01:19;22.50;71.80
47616;DHT22;69146;52.266;7.000;2023-05-20T13:04:04;22.20;72.10
47616;DHT22;69146;52.266;7.000;2023-05-20T13:06:48;22.20;72.40
47616;DHT22;69146;52.266;7.000;2023-05-20T13:09:33;22.40;72.60
47616;DHT22;69146;52.266;7.000;2023-05-20T13:12:17;22.30;72.40
47616;DHT22;69146;52.266;7.000;2023-05-20T13:15:04;21.70;72.70
47616;DHT22;69146;52.266;7.000;2023-05-20T13:17:48;21.30;73.00
47616;DHT22;69146;52.266;7.000;2023-05-20T13:20:33;21.00;74.20
47616;DHT22;69146;52.266;7.000;2023-05-20T13:23:17;21.80;73.80
47616;DHT22;69146;52.266;7.000;2023-05-20T13:26:01;22.90;71.70
47616;DHT22;69146;52.266;7.000;2023-05-20T13:28:46;23.40;70.70
47616;DHT22;69146;52.266;7.000;2023-05-20T13:31:31;23.30;70.70
47616;DHT22;69146;52.266;7.000;2023-05-20T13:34:16;23.10;71.40
47616;DHT22;69146;52.266;7.000;2023-05-20T13:37:01;22.40;71.80
47616;DHT22;69146;52.266;7.000;2023-05-20T13:39:45;22.00;72.60
47616;DHT22;69146;52.266;7.000;2023-05-20T13:42:29;21.80;72.70
47616;DHT22;69146;52.266;7.000;2023-05-20T13:45:14;21.80;73.00
47616;DHT22;69146;52.266;7.000;2023-05-20T13:48:00;21.70;72.40
47616;DHT22;69146;52.266;7.000;2023-05-20T13:50:44;21.60;73.40
47616;DHT22;69146;52.266;7.000;2023-05-20T13:53:29;21.50;73.10
47616;DHT22;69146;52.266;7.000;2023-05-20T13:56:13;21.40;73.90
47616;DHT22;69146;52.266;7.000;2023-05-20T13:58:58;21.20;74.30
47616;DHT22;69146;52.266;7.000;2023-05-20T14:01:42;21.30;74.50
47616;DHT22;69146;52.266;7.000;2023-05-20T14:04:29;21.40;74.20
47616;DHT22;69146;52.266;7.000;2023-05-20T14:07:21;21.20;74.10
47616;DHT22;69146;52.266;7.000;2023-05-20T14:10:06;21.30;74.00
47616;DHT22;69146;52.266;7.000;2023-05-20T14:12:52;21.20;74.00
47616;DHT22;69146;52.266;7.000;2023-05-20T14:15:36;21.00;74.10
47616;DHT22;69146;52.266;7.000;2023-05-20T14:18:20;20.80;74.70
47616;DHT22;69146;52.266;7.000;2023-05-20T14:21:06;20.60;74.60
47616;DHT22;69146;52.266;7.000;2023-05-20T14:23:51;20.60;75.60
47616;DHT22;69146;52.266;7.000;2023-05-20T14:26:35;20.80;75.50
47616;DHT22;69146;52.266;7.000;2023-05-20T14:29:20;21.00;74.60
47616;DHT22;69146;52.266;7.000;2023-05-20T14:32:04;20.80;75.50
47616;DHT22;69146;52.266;7.000;2023-05-20T14:34:49;20.80;75.00
47616;DHT22;69146;52.266;7.000;2023-05-20T14:37:35;20.60;75.70
47616;DHT22;69146;52.266;7.000;2023-05-20T14:40:20;20.60;75.50
47616;DHT22;69146;52.266;7.000;2023-05-20T14:43:04;20.60;75.70
47616;DHT22;69146;52.266;7.000;2023-05-20T14:45:49;20.80;76.30
47616;DHT22;69146;52.266;7.000;2023-05-20T14:48:33;21.10;75.00
47616;DHT22;69146;52.266;7.000;2023-05-20T14:51:17;20.90;74.30
47616;DHT22;69146;52.266;7.000;2023-05-20T14:54:03;20.80;75.20
47616;DHT22;69146;52.266;7.000;2023-05-20T14:56:49;21.30;73.90
47616;DHT22;69146;52.266;7.000;2023-05-20T14:59:34;22.60;72.70
47616;DHT22;69146;52.266;7.000;2023-05-20T15:02:18;23.20;71.20
47616;DHT22;69146;52.266;7.000;2023-05-20T15:05:03;22.90;71.40
47616;DHT22;69146;52.266;7.000;2023-05-20T15:07:48;22.30;72.90
47616;DHT22;69146;52.266;7.000;2023-05-20T15:10:34;21.90;73.80
47616;DHT22;69146;52.266;7.000;2023-05-20T15:13:19;21.70;74.10
47616;DHT22;69146;52.266;7.000;2023-05-20T15:16:04;21.40;74.40
47616;DHT22;69146;52.266;7.000;2023-05-20T15:18:48;21.20;75.00
47616;DHT22;69146;52.266;7.000;2023-05-20T15:21:33;21.60;74.70
47616;DHT22;69146;52.266;7.000;2023-05-20T15:24:17;22.70;72.00
47616;DHT22;69146;52.266;7.000;2023-05-20T15:27:03;23.40;70.70
47616;DHT22;69146;52.266;7.000;2023-05-20T15:29:48;24.10;70.00
47616;DHT22;69146;52.266;7.000;2023-05-20T15:32:33;24.30;68.60
47616;DHT22;69146;52.266;7.000;2023-05-20T15:35:17;24.10;69.00
47616;DHT22;69146;52.266;7.000;2023-05-20T15:38:02;24.10;68.50
47616;DHT22;69146;52.266;7.000;2023-05-20T15:40:46;23.50;68.90
47616;DHT22;69146;52.266;7.000;2023-05-20T15:43:34;23.60;69.60
47616;DHT22;69146;52.266;7.000;2023-05-20T15:46:19;24.00;69.10
47616;DHT22;69146;52.266;7.000;2023-05-20T15:49:04;24.10;69.30
47616;DHT22;69146;52.266;7.000;2023-05-20T15:51:48;24.50;67.90
47616;DHT22;69146;52.266;7.000;2023-05-20T15:54:33;24.60;68.50
47616;DHT22;69146;52.266;7.000;2023-05-20T15:57:17;25.10;67.20
47616;DHT22;69146;52.266;7.000;2023-05-20T16:00:03;25.00;67.30
47616;DHT22;69146;52.266;7.000;2023-05-20T16:02:52;24.60;67.50
47616;DHT22;69146;52.266;7.000;2023-05-20T16:05:37;24.30;68.10
47616;DHT22;69146;52.266;7.000;2023-05-20T16:08:22;24.30;68.00
47616;DHT22;69146;52.266;7.000;2023-05-20T16:11:07;24.40;68.60
47616;DHT22;69146;52.266;7.000;2023-05-20T16:13:51;24.90;68.20
47616;DHT22;69146;52.266;7.000;2023-05-20T16:16:37;24.40;67.60
47616;DHT22;69146;52.266;7.000;2023-05-20T16:19:22;24.20;68.30
47616;DHT22;69146;52.266;7.000;2023-05-20T16:22:06;24.20;68.70
47616;DHT22;69146;52.266;7.000;2023-05-20T16:24:52;24.00;68.60
47616;DHT22;69146;52.266;7.000;2023-05-20T16:27:37;24.20;68.80
47616;DHT22;69146;52.266;7.000;2023-05-20T16:30:21;24.60;67.70
47616;DHT22;69146;52.266;7.000;2023-05-20T16:33:09;24.70;67.30
47616;DHT22;69146;52.266;7.000;2023-05-20T16:35:56;25.10;67.30
47616;DHT22;69146;52.266;7.000;2023-05-20T16:38:40;25.00;67.20
47616;DHT22;69146;52.266;7.000;2023-05-20T16:41:25;24.70;67.50
47616;DHT22;69146;52.266;7.000;2023-05-20T16:44:10;23.80;68.60
47616;DHT22;69146;52.266;7.000;2023-05-20T16:46:54;23.10;70.60
47616;DHT22;69146;52.266;7.000;2023-05-20T16:49:40;22.60;71.10
47616;DHT22;69146;52.266;7.000;2023-05-20T16:52:25;22.50;71.90
47616;DHT22;69146;52.266;7.000;2023-05-20T16:55:09;22.10;72.20
47616;DHT22;69146;52.266;7.000;2023-05-20T16:57:54;21.70;73.10
47616;DHT22;69146;52.266;7.000;2023-05-20T17:00:38;21.60;73.40
47616;DHT22;69146;52.266;7.000;2023-05-20T17:03:23;21.40;74.10
47616;DHT22;69146;52.266;7.000;2023-05-20T17:06:08;21.30;74.70
47616;DHT22;69146;52.266;7.000;2023-05-20T17:08:53;21.20;74.90
47616;DHT22;69146;52.266;7.000;2023-05-20T17:11:37;21.10;75.50
47616;DHT22;69146;52.266;7.000;2023-05-20T17:14:22;20.90;75.90
47616;DHT22;69146;52.266;7.000;2023-05-20T17:17:06;20.60;76.80
47616;DHT22;69146;52.266;7.000;2023-05-20T17:19:52;20.50;77.20
47616;DHT22;69146;52.266;7.000;2023-05-20T17:22:39;20.20;77.70